createdAt,value
2023-04-05T00:01:53.466Z,101939.72
2023-04-05T00:04:20.693Z,101946.72
2023-04-05T00:06:52.430Z,101928.34
2023-04-05T00:09:20.730Z,101932.75
2023-04-05T00:11:47.995Z,101931.91
2023-04-05T00:14:14.863Z,101934.75
2023-04-05T00:16:42.351Z,101934.75
2023-04-05T00:19:10.987Z,101931.19
2023-04-05T00:21:39.212Z,101931.28
2023-04-05T00:24:05.911Z,101934.75
2023-04-05T00:26:32.276Z,101926.16
2023-04-05T00:28:59.035Z,101925.31
2023-04-05T00:31:25.414Z,101926.13
2023-04-05T00:33:51.756Z,101924.47
2023-04-05T00:36:20.459Z,101928.91
2023-04-05T00:38:49.194Z,101923.66
2023-04-05T00:41:16.196Z,101923.69
2023-04-05T00:43:42.729Z,101917.63
2023-04-05T00:46:09.581Z,101903.63
2023-04-05T00:48:36.417Z,101898.53
2023-04-05T00:51:03.688Z,101906.38
2023-04-05T00:53:30.256Z,101906.41
2023-04-05T00:55:57.795Z,101900.44
2023-04-05T00:58:24.359Z,101903.09
2023-04-05T01:01:13.422Z,101906.72
2023-04-05T01:03:44.781Z,101907.75
2023-04-05T01:06:17.374Z,101906.91
2023-04-05T01:09:02.472Z,101914.03
2023-04-05T01:11:32.283Z,101904.34
2023-04-05T01:14:02.389Z,101909.69
2023-04-05T01:16:29.243Z,101913.34
2023-04-05T01:18:58.972Z,101908.19
2023-04-05T01:21:49.929Z,101899.53
2023-04-05T01:24:47.297Z,101900.41
2023-04-05T01:27:21.075Z,101897.00
2023-04-05T01:29:51.310Z,101894.44
2023-04-05T01:32:30.284Z,101890.19
2023-04-05T01:35:18.244Z,101884.91
2023-04-05T01:37:49.767Z,101886.69
2023-04-05T01:40:16.637Z,101887.63
2023-04-05T01:42:46.474Z,101883.22
2023-04-05T01:45:12.825Z,101888.50
2023-04-05T01:47:39.221Z,101878.94
2023-04-05T01:50:06.533Z,101882.53
2023-04-05T01:52:33.048Z,101883.53
2023-04-05T01:54:59.363Z,101875.59
2023-04-05T01:57:25.734Z,101879.16
2023-04-05T01:59:52.038Z,101872.19
2023-04-05T02:02:18.375Z,101865.06
2023-04-05T02:04:44.756Z,101862.53
2023-04-05T02:07:11.089Z,101875.75
2023-04-05T02:09:37.461Z,101876.66
2023-04-05T02:12:04.025Z,101869.72
2023-04-05T02:14:30.337Z,101870.66
2023-04-05T02:16:56.702Z,101870.81
2023-04-05T02:19:25.851Z,101867.38
2023-04-05T02:21:53.794Z,101866.53
2023-04-05T02:24:20.279Z,101859.53
2023-04-05T02:26:46.644Z,101863.09
2023-04-05T02:29:12.996Z,101856.19
2023-04-05T02:31:39.418Z,101838.66
2023-04-05T02:34:09.037Z,101856.25
2023-04-05T02:36:35.449Z,101862.53
2023-04-05T02:39:02.683Z,101865.13
2023-04-05T02:41:29.428Z,101860.75
2023-04-05T02:43:55.763Z,101864.31
2023-04-05T02:46:22.154Z,101867.88
2023-04-05T02:48:48.557Z,101856.47
2023-04-05T02:51:16.592Z,101854.75
2023-04-05T02:53:44.805Z,101855.69
2023-04-05T02:56:14.216Z,101853.13
2023-04-05T02:58:43.500Z,101859.34
2023-04-05T03:01:10.460Z,101861.97
2023-04-05T03:03:37.475Z,101862.00
2023-04-05T03:06:10.004Z,101850.63
2023-04-05T03:08:46.058Z,101856.75
2023-04-05T03:11:15.258Z,101855.94
2023-04-05T03:13:46.442Z,101853.34
2023-04-05T03:16:24.150Z,101848.13
2023-04-05T03:18:50.497Z,101847.31
2023-04-05T03:21:18.012Z,101841.16
2023-04-05T03:23:53.458Z,101845.59
2023-04-05T03:26:26.151Z,101845.63
2023-04-05T03:28:53.325Z,101839.53
2023-04-05T03:31:29.249Z,101843.97
2023-04-05T03:33:58.418Z,101844.00
2023-04-05T03:36:41.762Z,101852.88
2023-04-05T03:39:14.319Z,101839.72
2023-04-05T03:41:41.045Z,101840.53
2023-04-05T03:44:09.217Z,101849.25
2023-04-05T03:46:37.893Z,101849.28
2023-04-05T03:49:07.175Z,101845.75
2023-04-05T03:51:33.648Z,101837.84
2023-04-05T03:54:00.234Z,101845.78
2023-04-05T03:56:32.450Z,101837.91
2023-04-05T03:59:04.309Z,101835.31
2023-04-05T04:01:31.659Z,101835.25
2023-04-05T04:04:00.137Z,101833.47
2023-04-05T04:06:26.992Z,101833.47
2023-04-05T04:08:53.390Z,101829.91
2023-04-05T04:11:19.710Z,101834.38
2023-04-05T04:13:47.132Z,101828.22
2023-04-05T04:16:20.632Z,101829.13
2023-04-05T04:19:13.165Z,101834.34
2023-04-05T04:22:01.537Z,101830.81
2023-04-05T04:24:50.500Z,101837.91
2023-04-05T04:27:36.876Z,101837.84
2023-04-05T04:30:15.880Z,101830.03
2023-04-05T04:32:58.712Z,101830.09
2023-04-05T04:35:47.059Z,101837.06
2023-04-05T04:38:34.847Z,101830.94
2023-04-05T04:41:26.522Z,101836.22
2023-04-05T04:44:14.535Z,101835.31
2023-04-05T04:46:59.490Z,101826.59
2023-04-05T04:49:41.522Z,101828.34
2023-04-05T04:52:07.956Z,101830.09
2023-04-05T04:54:36.809Z,101833.63
2023-04-05T04:57:03.261Z,101831.88
2023-04-05T04:59:30.003Z,101829.25
2023-04-05T05:01:56.487Z,101832.78
2023-04-05T05:04:22.893Z,101839.00
2023-04-05T05:06:53.920Z,101835.47
2023-04-05T05:09:20.633Z,101841.63
2023-04-05T05:11:52.161Z,101834.63
2023-04-05T05:14:18.510Z,101832.94
2023-04-05T05:16:45.021Z,101834.72
2023-04-05T05:19:11.422Z,101830.31
2023-04-05T05:21:43.190Z,101824.19
2023-04-05T05:24:09.978Z,101836.47
2023-04-05T05:26:37.939Z,101833.81
2023-04-05T05:29:04.275Z,101832.91
2023-04-05T05:31:33.673Z,101834.66
2023-04-05T05:34:00.271Z,101835.50
2023-04-05T05:36:27.766Z,101838.09
2023-04-05T05:38:54.623Z,101834.53
2023-04-05T05:41:23.866Z,101828.31
2023-04-05T05:43:50.337Z,101830.03
2023-04-05T05:46:17.986Z,101832.56
2023-04-05T05:48:45.497Z,101838.69
2023-04-05T05:51:11.911Z,101834.31
2023-04-05T05:53:39.478Z,101835.16
2023-04-05T05:56:06.388Z,101836.03
2023-04-05T05:58:32.957Z,101846.50
2023-04-05T06:00:59.891Z,101832.41
2023-04-05T06:03:26.546Z,101834.16
2023-04-05T06:05:54.009Z,101834.06
2023-04-05T06:08:20.395Z,101833.09
2023-04-05T06:10:46.708Z,101834.72
2023-04-05T06:13:13.056Z,101838.94
2023-04-05T06:15:39.468Z,101835.22
2023-04-05T06:18:05.826Z,101826.97
2023-04-05T06:20:32.234Z,101833.81
2023-04-05T06:22:58.574Z,101824.69
2023-04-05T06:25:24.966Z,101827.06
2023-04-05T06:27:51.300Z,101820.63
2023-04-05T06:30:17.615Z,101830.91
2023-04-05T06:32:43.960Z,101827.13
2023-04-05T06:35:10.456Z,101821.56
2023-04-05T06:37:36.806Z,101829.94
2023-04-05T06:40:03.867Z,101826.28
2023-04-05T06:42:30.393Z,101829.53
2023-04-05T06:45:04.198Z,101825.00
2023-04-05T06:47:37.896Z,101825.59
2023-04-05T06:50:06.607Z,101820.09
2023-04-05T06:52:33.412Z,101829.53
2023-04-05T06:54:59.818Z,101829.25
2023-04-05T06:57:26.973Z,101824.59
2023-04-05T06:59:54.522Z,101822.72
2023-04-05T07:02:21.316Z,101828.66
2023-04-05T07:04:48.238Z,101836.19
2023-04-05T07:07:14.708Z,101827.09
2023-04-05T07:09:41.180Z,101831.31
2023-04-05T07:12:08.192Z,101829.91
2023-04-05T07:14:36.930Z,101831.31
2023-04-05T07:17:08.510Z,101828.28
2023-04-05T07:19:34.944Z,101821.78
2023-04-05T07:22:01.500Z,101821.44
2023-04-05T07:24:27.981Z,101820.22
2023-04-05T07:26:54.307Z,101819.09
2023-04-05T07:29:20.790Z,101821.38
2023-04-05T07:31:47.134Z,101820.16
2023-04-05T07:34:13.552Z,101820.50
2023-04-05T07:36:40.140Z,101819.28
2023-04-05T07:39:06.498Z,101821.50
2023-04-05T07:41:35.204Z,101823.84
2023-04-05T07:44:01.681Z,101812.03
2023-04-05T07:46:28.165Z,101818.31
2023-04-05T07:48:54.593Z,101815.06
2023-04-05T07:51:21.538Z,101813.72
2023-04-05T07:53:48.751Z,101816.84
2023-04-05T07:56:15.560Z,101811.16
2023-04-05T07:58:42.324Z,101813.78
2023-04-05T08:01:10.499Z,101812.31
2023-04-05T08:03:40.172Z,101817.19
2023-04-05T08:06:14.599Z,101819.44
2023-04-05T08:08:41.391Z,101819.22
2023-04-05T08:11:07.795Z,101815.00
2023-04-05T08:13:34.203Z,101809.63
2023-04-05T08:16:01.943Z,101819.94
2023-04-05T08:18:28.530Z,101812.03
2023-04-05T08:20:55.785Z,101805.44
2023-04-05T08:23:22.724Z,101813.75
2023-04-05T08:25:49.536Z,101805.94
2023-04-05T08:28:16.413Z,101815.53
2023-04-05T08:30:43.102Z,101812.38
2023-04-05T08:33:09.727Z,101815.78
2023-04-05T08:35:37.777Z,101802.81
2023-04-05T08:38:07.696Z,101801.72
2023-04-05T08:40:43.989Z,101808.38
2023-04-05T08:43:15.537Z,101806.06
2023-04-05T08:45:50.973Z,101808.28
2023-04-05T08:48:18.189Z,101803.88
2023-04-05T08:50:53.855Z,101795.47
2023-04-05T08:53:20.551Z,101799.09
2023-04-05T08:55:54.134Z,101795.78
2023-04-05T08:58:22.238Z,101801.56
2023-04-05T09:00:50.604Z,101806.38
2023-04-05T09:03:23.220Z,101801.50
2023-04-05T09:05:51.528Z,101807.06
2023-04-05T09:08:18.281Z,101796.44
2023-04-05T09:10:44.645Z,101798.53
2023-04-05T09:13:10.998Z,101795.66
2023-04-05T09:15:38.529Z,101786.69
2023-04-05T09:18:12.423Z,101789.69
2023-04-05T09:20:45.793Z,101785.44
2023-04-05T09:23:12.270Z,101789.44
2023-04-05T09:25:39.873Z,101785.38
2023-04-05T09:28:07.235Z,101789.31
2023-04-05T09:30:35.591Z,101783.97
2023-04-05T09:33:03.314Z,101785.44
2023-04-05T09:35:32.308Z,101782.16
2023-04-05T09:38:01.325Z,101787.81
2023-04-05T09:40:47.090Z,101783.47
2023-04-05T09:43:36.983Z,101784.53
2023-04-05T09:46:03.510Z,101785.94
2023-04-05T09:48:49.755Z,101785.94
2023-04-05T09:51:17.134Z,101790.97
2023-04-05T09:54:06.671Z,101789.50
2023-04-05T09:56:38.356Z,101789.66
2023-04-05T09:59:10.947Z,101787.19
2023-04-05T10:01:41.441Z,101780.28
2023-04-05T10:04:08.720Z,101774.50
2023-04-05T10:06:36.596Z,101779.00
2023-04-05T10:09:04.922Z,101776.28
2023-04-05T10:11:33.950Z,101769.47
2023-04-05T10:14:02.328Z,101774.94
2023-04-05T10:16:30.228Z,101773.28
2023-04-05T10:18:56.639Z,101766.81
2023-04-05T10:21:26.058Z,101759.97
2023-04-05T10:24:05.643Z,101757.16
2023-04-05T10:26:48.702Z,101757.78
2023-04-05T10:29:29.511Z,101751.94
2023-04-05T10:32:10.518Z,101752.09
2023-04-05T10:34:48.394Z,101749.88
2023-04-05T10:37:30.315Z,101755.94
2023-04-05T10:40:03.156Z,101750.22
2023-04-05T10:42:40.864Z,101751.50
2023-04-05T10:45:11.441Z,101737.50
2023-04-05T10:47:44.678Z,101735.69
2023-04-05T10:50:17.701Z,101733.00
2023-04-05T10:52:45.737Z,101732.88
2023-04-05T10:55:12.362Z,101726.75
2023-04-05T10:57:39.716Z,101720.59
2023-04-05T11:00:07.781Z,101721.06
2023-04-05T11:02:34.239Z,101716.50
2023-04-05T11:05:04.862Z,101720.72
2023-04-05T11:07:45.184Z,101710.66
2023-04-05T11:10:19.064Z,101716.31
2023-04-05T11:12:45.400Z,101711.81
2023-04-05T11:15:30.220Z,101717.78
2023-04-05T11:18:10.775Z,101720.13
2023-04-05T11:20:51.739Z,101722.34
2023-04-05T11:23:20.691Z,101718.06
2023-04-05T11:26:03.901Z,101715.38
2023-04-05T11:28:40.403Z,101716.28
2023-04-05T11:31:18.213Z,101711.19
2023-04-05T11:33:51.811Z,101713.53
2023-04-05T11:36:47.758Z,101702.84
2023-04-05T11:39:20.977Z,101700.00
2023-04-05T11:41:53.506Z,101699.25
2023-04-05T11:44:20.533Z,101704.06
2023-04-05T11:46:46.887Z,101695.09
2023-04-05T11:49:13.754Z,101692.53
2023-04-05T11:51:43.835Z,101699.63
2023-04-05T11:54:10.469Z,101690.25
2023-04-05T11:56:37.772Z,101687.22
2023-04-05T11:59:04.265Z,101687.38
2023-04-05T12:01:30.628Z,101679.94
2023-04-05T12:03:57.483Z,101686.38
2023-04-05T12:06:26.107Z,101675.56
2023-04-05T12:08:56.086Z,101673.47
2023-04-05T12:11:31.046Z,101670.19
2023-04-05T12:14:00.132Z,101668.53
2023-04-05T12:16:27.607Z,101670.66
2023-04-05T12:18:55.769Z,101668.38
2023-04-05T12:21:23.018Z,101662.19
2023-04-05T12:23:52.997Z,101661.50
2023-04-05T12:26:20.993Z,101661.41
2023-04-05T12:28:58.271Z,101649.59
2023-04-05T12:31:44.847Z,101653.69
2023-04-05T12:34:13.930Z,101658.97
2023-04-05T12:36:45.114Z,101658.56
2023-04-05T12:39:11.604Z,101646.50
2023-04-05T12:41:38.167Z,101642.41
2023-04-05T12:44:27.677Z,101641.38
2023-04-05T12:47:03.241Z,101639.13
2023-04-05T12:49:35.241Z,101634.47
2023-04-05T12:52:02.820Z,101637.00
2023-04-05T12:54:30.868Z,101627.59
2023-04-05T12:56:57.382Z,101622.84
2023-04-05T12:59:24.160Z,101630.56
2023-04-05T13:01:51.165Z,101625.91
2023-04-05T13:04:17.816Z,101624.69
2023-04-05T13:06:47.002Z,101621.59
2023-04-05T13:09:13.478Z,101610.97
2023-04-05T13:11:39.812Z,101615.91
2023-04-05T13:14:06.156Z,101618.09
2023-04-05T13:16:32.504Z,101611.34
2023-04-05T13:18:58.892Z,101613.94
2023-04-05T13:21:25.729Z,101610.16
2023-04-05T13:23:52.051Z,101600.59
2023-04-05T13:26:18.407Z,101593.91
2023-04-05T13:28:44.790Z,101599.56
2023-04-05T13:31:12.078Z,101595.50
2023-04-05T13:33:40.091Z,101585.72
2023-04-05T13:36:06.883Z,101578.00
2023-04-05T13:38:33.268Z,101581.06
2023-04-05T13:40:59.596Z,101579.59
2023-04-05T13:43:27.859Z,101579.59
2023-04-05T13:45:54.203Z,101570.63
2023-04-05T13:48:20.528Z,101572.16
2023-04-05T13:50:46.892Z,101567.97
2023-04-05T13:53:13.708Z,101568.41
2023-04-05T13:55:40.161Z,101563.63
2023-04-05T13:58:06.729Z,101564.91
2023-04-05T14:00:33.240Z,101557.25
2023-04-05T14:02:59.699Z,101558.56
2023-04-05T14:05:26.132Z,101555.25
2023-04-05T14:07:52.443Z,101556.81
2023-04-05T14:10:21.725Z,101553.41
2023-04-05T14:12:48.158Z,101543.28
2023-04-05T14:15:14.608Z,101552.81
2023-04-05T14:17:41.249Z,101548.56
2023-04-05T14:20:08.125Z,101542.44
2023-04-05T14:22:34.479Z,101540.81
2023-04-05T14:25:00.850Z,101536.56
2023-04-05T14:27:28.342Z,101536.22
2023-04-05T14:29:58.314Z,101529.03
2023-04-05T14:32:25.630Z,101527.50
2023-04-05T14:34:52.358Z,101524.00
2023-04-05T14:37:18.695Z,101527.75
2023-04-05T14:39:45.169Z,101518.16
2023-04-05T14:42:11.512Z,101515.06
2023-04-05T14:44:38.713Z,101522.13
2023-04-05T14:47:05.595Z,101513.41
2023-04-05T14:49:31.944Z,101510.28
2023-04-05T14:51:58.456Z,101505.13
2023-04-05T14:54:24.893Z,101507.16
2023-04-05T14:56:51.219Z,101513.47
2023-04-05T14:59:17.665Z,101509.41
2023-04-05T15:01:45.396Z,101508.34
2023-04-05T15:04:11.967Z,101505.28
2023-04-05T15:06:38.326Z,101506.56
2023-04-05T15:09:04.685Z,101506.03
2023-04-05T15:11:34.073Z,101502.50
2023-04-05T15:14:00.470Z,101492.38
2023-04-05T15:16:26.874Z,101504.78
2023-04-05T15:18:54.616Z,101490.69
2023-04-05T15:21:21.135Z,101486.28
2023-04-05T15:23:48.021Z,101487.03
2023-04-05T15:26:14.449Z,101485.41
2023-04-05T15:28:41.046Z,101484.66
2023-04-05T15:31:07.796Z,101477.16
2023-04-05T15:33:34.170Z,101472.53
2023-04-05T15:36:00.593Z,101486.31
2023-04-05T15:38:27.257Z,101477.22
2023-04-05T15:40:54.250Z,101468.63
2023-04-05T15:43:20.903Z,101469.66
2023-04-05T15:45:47.299Z,101466.00
2023-04-05T15:48:13.788Z,101465.28
2023-04-05T15:50:40.680Z,101465.69
2023-04-05T15:53:07.316Z,101458.47
2023-04-05T15:55:33.661Z,101458.09
2023-04-05T15:58:00.211Z,101456.06
2023-04-05T16:00:27.510Z,101456.56
2023-04-05T16:02:56.154Z,101458.06
2023-04-05T16:05:23.281Z,101455.09
2023-04-05T16:07:50.009Z,101458.75
2023-04-05T16:10:16.523Z,101460.53
2023-04-05T16:12:42.935Z,101451.19
2023-04-05T16:15:09.691Z,101447.59
2023-04-05T16:17:36.551Z,101446.69
2023-04-05T16:20:03.347Z,101447.88
2023-04-05T16:22:30.883Z,101447.13
2023-04-05T16:24:57.248Z,101446.38
2023-04-05T16:27:23.632Z,101451.31
2023-04-05T16:29:49.978Z,101450.97
2023-04-05T16:32:16.523Z,101439.06
2023-04-05T16:34:42.940Z,101446.91
2023-04-05T16:37:09.288Z,101446.91
2023-04-05T16:39:35.640Z,101442.81
2023-04-05T16:42:02.126Z,101444.34
2023-04-05T16:44:30.343Z,101441.94
2023-04-05T16:46:58.073Z,101440.88
2023-04-05T16:49:24.398Z,101440.03
2023-04-05T16:51:50.726Z,101438.09
2023-04-05T16:54:17.049Z,101439.16
2023-04-05T16:56:43.510Z,101441.88
2023-04-05T16:59:10.088Z,101435.91
2023-04-05T17:01:36.678Z,101441.63
2023-04-05T17:04:03.705Z,101437.63
2023-04-05T17:06:30.008Z,101440.94
2023-04-05T17:08:56.505Z,101438.78
2023-04-05T17:11:22.914Z,101437.09
2023-04-05T17:13:49.695Z,101438.28
2023-04-05T17:16:16.491Z,101443.19
2023-04-05T17:18:42.943Z,101435.75
2023-04-05T17:21:09.344Z,101434.31
2023-04-05T17:23:35.714Z,101438.16
2023-04-05T17:26:02.071Z,101435.00
2023-04-05T17:28:28.508Z,101443.25
2023-04-05T17:30:55.762Z,101440.41
2023-04-05T17:33:22.126Z,101440.13
2023-04-05T17:35:48.841Z,101440.44
2023-04-05T17:38:15.200Z,101449.47
2023-04-05T17:40:41.733Z,101446.59
2023-04-05T17:43:08.665Z,101448.38
2023-04-05T17:45:34.986Z,101445.78
2023-04-05T17:48:01.433Z,101440.78
2023-04-05T17:50:27.905Z,101441.53
2023-04-05T17:52:54.252Z,101442.94
2023-04-05T17:55:20.664Z,101439.59
2023-04-05T17:57:48.266Z,101443.38
2023-04-05T18:00:15.609Z,101450.06
2023-04-05T18:02:42.020Z,101441.94
2023-04-05T18:05:10.031Z,101440.16
2023-04-05T18:07:37.763Z,101446.88
2023-04-05T18:10:05.492Z,101445.66
2023-04-05T18:12:33.315Z,101445.47
2023-04-05T18:14:59.830Z,101447.63
2023-04-05T18:17:26.254Z,101451.19
2023-04-05T18:19:53.388Z,101446.03
2023-04-05T18:22:20.177Z,101447.19
2023-04-05T18:24:46.502Z,101443.13
2023-04-05T18:27:12.847Z,101447.06
2023-04-05T18:29:39.580Z,101448.34
2023-04-05T18:32:07.010Z,101453.16
2023-04-05T18:34:34.586Z,101457.16
2023-04-05T18:37:01.544Z,101458.25
2023-04-05T18:39:27.965Z,101457.94
2023-04-05T18:41:54.840Z,101457.50
2023-04-05T18:44:21.202Z,101457.03
2023-04-05T18:46:48.788Z,101465.44
2023-04-05T18:49:18.944Z,101467.69
2023-04-05T18:51:45.561Z,101471.59
2023-04-05T18:54:13.692Z,101470.72
2023-04-05T18:56:40.456Z,101472.84
2023-04-05T18:59:07.040Z,101470.66
2023-04-05T19:01:33.676Z,101478.88
2023-04-05T19:04:00.479Z,101476.75
2023-04-05T19:06:27.920Z,101477.88
2023-04-05T19:08:54.235Z,101487.00
2023-04-05T19:11:21.909Z,101481.34
2023-04-05T19:13:48.250Z,101489.63
2023-04-05T19:16:17.192Z,101484.88
2023-04-05T19:18:43.995Z,101487.75
2023-04-05T19:21:10.354Z,101493.44
2023-04-05T19:23:36.856Z,101495.34
2023-04-05T19:26:03.262Z,101490.09
2023-04-05T19:28:29.622Z,101499.22
2023-04-05T19:30:56.639Z,101495.09
2023-04-05T19:33:23.279Z,101504.16
2023-04-05T19:35:50.070Z,101491.91
2023-04-05T19:38:16.505Z,101486.66
2023-04-05T19:40:43.170Z,101491.31
2023-04-05T19:43:11.333Z,101492.38
2023-04-05T19:45:37.656Z,101492.66
2023-04-05T19:48:27.526Z,101485.69
2023-04-05T19:50:56.292Z,101486.78
2023-04-05T19:53:48.543Z,101488.06
2023-04-05T19:56:20.185Z,101487.84
2023-04-05T19:58:48.423Z,101479.63
2023-04-05T20:01:36.651Z,101483.78
2023-04-05T20:04:17.256Z,101481.31
2023-04-05T20:06:52.818Z,101480.41
2023-04-05T20:09:20.606Z,101480.41
2023-04-05T20:11:54.192Z,101481.97
2023-04-05T20:14:26.823Z,101484.59
2023-04-05T20:16:53.195Z,101478.97
2023-04-05T20:19:27.857Z,101472.28
2023-04-05T20:21:54.182Z,101481.66
2023-04-05T20:24:24.100Z,101479.41
2023-04-05T20:26:53.775Z,101474.56
2023-04-05T20:29:25.681Z,101476.63
2023-04-05T20:31:52.294Z,101477.75
2023-04-05T20:34:27.996Z,101467.44
2023-04-05T20:37:03.338Z,101474.75
2023-04-05T20:39:30.845Z,101475.97
2023-04-05T20:41:58.350Z,101470.06
2023-04-05T20:44:25.776Z,101474.47
2023-04-05T20:46:54.076Z,101467.19
2023-04-05T20:49:22.225Z,101467.47
2023-04-05T20:51:50.497Z,101460.88
2023-04-05T20:54:17.845Z,101457.41
2023-04-05T20:56:44.306Z,101460.94
2023-04-05T20:59:11.231Z,101449.59
2023-04-05T21:01:38.493Z,101450.56
2023-04-05T21:04:05.560Z,101444.56
2023-04-05T21:06:32.040Z,101453.56
2023-04-05T21:08:58.350Z,101447.59
2023-04-05T21:11:24.676Z,101446.13
2023-04-05T21:13:50.985Z,101438.19
2023-04-05T21:16:17.359Z,101436.28
2023-04-05T21:18:43.744Z,101433.56
2023-04-05T21:21:10.201Z,101438.34
2023-04-05T21:23:36.569Z,101429.75
2023-04-05T21:26:04.386Z,101434.28
2023-04-05T21:28:31.043Z,101433.50
2023-04-05T21:30:57.518Z,101434.56
2023-04-05T21:33:24.121Z,101429.28
2023-04-05T21:35:50.955Z,101430.41
2023-04-05T21:38:17.902Z,101425.28
2023-04-05T21:40:45.834Z,101431.75
2023-04-05T21:43:13.194Z,101435.47
2023-04-05T21:45:39.636Z,101431.28
2023-04-05T21:48:06.133Z,101426.91
2023-04-05T21:50:32.594Z,101430.72
2023-04-05T21:52:58.939Z,101423.75
2023-04-05T21:55:25.267Z,101418.72
2023-04-05T21:57:51.728Z,101426.72
2023-04-05T22:00:18.529Z,101417.06
2023-04-05T22:02:45.226Z,101420.69
2023-04-05T22:05:13.058Z,101427.03
2023-04-05T22:07:42.082Z,101427.16
2023-04-05T22:10:08.999Z,101421.19
2023-04-05T22:12:35.511Z,101419.38
2023-04-05T22:15:01.855Z,101408.81
2023-04-05T22:17:28.226Z,101412.28
2023-04-05T22:19:54.556Z,101408.00
2023-04-05T22:22:21.111Z,101417.00
2023-04-05T22:24:48.812Z,101413.50
2023-04-05T22:27:15.188Z,101409.13
2023-04-05T22:29:41.538Z,101405.69
2023-04-05T22:32:07.995Z,101404.09
2023-04-05T22:34:34.410Z,101401.59
2023-04-05T22:37:00.920Z,101406.19
2023-04-05T22:39:27.586Z,101407.97
2023-04-05T22:41:54.096Z,101394.03
2023-04-05T22:44:21.546Z,101398.56
2023-04-05T22:46:47.858Z,101394.25
2023-04-05T22:49:14.163Z,101400.59
2023-04-05T22:51:40.653Z,101398.06
2023-04-05T22:54:07.108Z,101402.56
2023-04-05T22:56:33.442Z,101400.94
2023-04-05T22:58:59.858Z,101400.84
2023-04-05T23:01:26.474Z,101385.94
2023-04-05T23:03:52.828Z,101399.13
2023-04-05T23:06:19.133Z,101393.97
2023-04-05T23:08:45.450Z,101387.06
2023-04-05T23:11:11.773Z,101386.25
2023-04-05T23:13:38.113Z,101388.06
2023-04-05T23:16:04.863Z,101387.38
2023-04-05T23:18:31.403Z,101383.34
2023-04-05T23:20:57.726Z,101379.88
2023-04-05T23:23:24.096Z,101376.38
2023-04-05T23:25:51.020Z,101382.72
2023-04-05T23:28:17.321Z,101376.53
2023-04-05T23:30:43.678Z,101374.91
2023-04-05T23:33:12.973Z,101380.22
2023-04-05T23:35:39.882Z,101367.19
2023-04-05T23:38:07.156Z,101370.75
2023-04-05T23:40:33.553Z,101369.19
2023-04-05T23:42:59.903Z,101363.09
2023-04-05T23:45:26.690Z,101359.59
2023-04-05T23:47:54.388Z,101353.44
2023-04-05T23:50:21.036Z,101354.41
2023-04-05T23:52:47.355Z,101349.16
2023-04-05T23:55:13.788Z,101349.31
2023-04-05T23:57:40.474Z,101353.88
